createdAt,value
2022-11-18T00:00:21.599Z,42.70
2022-11-18T00:02:53.187Z,42.15
2022-11-18T00:05:24.762Z,40.10
2022-11-18T00:07:56.355Z,40.00
2022-11-18T00:10:28.008Z,40.10
2022-11-18T00:13:18.110Z,42.05
2022-11-18T00:15:49.775Z,41.88
2022-11-18T00:18:21.448Z,43.47
2022-11-18T00:20:53.080Z,41.25
2022-11-18T00:23:24.670Z,43.40
2022-11-18T00:26:01.310Z,48.40
2022-11-18T00:28:33.921Z,42.65
2022-11-18T00:31:14.006Z,41.28
2022-11-18T00:33:46.809Z,39.20
2022-11-18T00:36:20.538Z,43.70
2022-11-18T00:38:52.274Z,44.95
2022-11-18T00:41:24.540Z,44.88
2022-11-18T00:43:56.254Z,46.30
2022-11-18T00:46:28.222Z,42.53
2022-11-18T00:49:02.831Z,45.88
2022-11-18T00:51:34.817Z,48.97
2022-11-18T00:54:06.748Z,45.63
2022-11-18T00:56:38.674Z,48.05
2022-11-18T00:59:10.346Z,42.95
2022-11-18T01:01:42.080Z,40.70
2022-11-18T01:04:13.902Z,38.30
2022-11-18T01:06:45.534Z,44.65
2022-11-18T01:09:17.367Z,43.28
2022-11-18T01:12:10.793Z,42.80
2022-11-18T01:14:42.510Z,48.90
2022-11-18T01:17:14.399Z,46.05
2022-11-18T01:19:46.131Z,44.80
2022-11-18T01:22:17.787Z,41.03
2022-11-18T01:24:49.360Z,45.53
2022-11-18T01:27:21.039Z,45.17
2022-11-18T01:29:56.643Z,45.63
2022-11-18T01:32:29.083Z,39.78
2022-11-18T01:35:00.875Z,40.33
2022-11-18T01:37:32.515Z,38.30
2022-11-18T01:40:08.782Z,38.80
2022-11-18T01:42:40.397Z,39.60
2022-11-18T01:45:11.962Z,41.50
2022-11-18T01:47:51.932Z,36.83
2022-11-18T01:50:24.708Z,35.40
2022-11-18T01:53:05.665Z,36.63
2022-11-18T01:55:46.297Z,37.28
2022-11-18T01:58:27.554Z,38.05
2022-11-18T02:01:04.455Z,35.17
2022-11-18T02:03:37.030Z,35.83
2022-11-18T02:06:11.898Z,36.25
2022-11-18T02:08:44.093Z,37.45
2022-11-18T02:11:34.908Z,34.80
2022-11-18T02:14:09.813Z,31.88
2022-11-18T02:16:53.510Z,32.63
2022-11-18T02:19:30.788Z,34.15
2022-11-18T02:22:14.538Z,32.08
2022-11-18T02:25:19.354Z,30.55
2022-11-18T02:28:03.446Z,33.10
2022-11-18T02:30:56.376Z,30.67
2022-11-18T02:33:31.010Z,29.52
2022-11-18T02:36:12.419Z,31.70
2022-11-18T02:38:50.278Z,37.08
2022-11-18T02:41:28.079Z,31.00
2022-11-18T02:44:05.962Z,37.42
2022-11-18T02:46:40.233Z,32.58
2022-11-18T02:49:27.682Z,31.92
2022-11-18T02:52:02.118Z,33.85
2022-11-18T02:54:37.413Z,29.67
2022-11-18T02:57:09.425Z,31.67
2022-11-18T02:59:44.040Z,31.98
2022-11-18T03:02:18.007Z,29.77
2022-11-18T03:04:54.061Z,29.73
2022-11-18T03:07:30.084Z,28.90
2022-11-18T03:10:02.967Z,31.88
2022-11-18T03:12:49.058Z,32.33
2022-11-18T03:15:35.027Z,25.52
2022-11-18T03:18:33.644Z,25.95
2022-11-18T03:21:24.801Z,27.80
2022-11-18T03:24:25.573Z,29.50
2022-11-18T03:27:23.994Z,29.67
2022-11-18T03:30:03.865Z,26.60
2022-11-18T03:32:40.387Z,25.20
2022-11-18T03:35:21.159Z,24.75
2022-11-18T03:37:58.368Z,26.63
2022-11-18T03:40:32.625Z,23.60
2022-11-18T03:43:13.850Z,25.88
2022-11-18T03:45:49.424Z,27.85
2022-11-18T03:48:29.536Z,26.75
2022-11-18T03:51:07.171Z,24.95
2022-11-18T03:53:43.290Z,25.45
2022-11-18T03:56:19.557Z,28.45
2022-11-18T03:59:02.806Z,29.35
2022-11-18T04:01:46.095Z,26.75
2022-11-18T04:04:18.353Z,29.23
2022-11-18T04:07:18.590Z,27.58
2022-11-18T04:10:18.010Z,28.35
2022-11-18T04:13:06.846Z,28.75
2022-11-18T04:15:41.531Z,26.20
2022-11-18T04:18:13.318Z,25.20
2022-11-18T04:20:44.938Z,28.95
2022-11-18T04:23:16.539Z,25.90
2022-11-18T04:25:49.248Z,27.58
2022-11-18T04:30:54.461Z,30.33
2022-11-18T04:33:26.180Z,29.17
2022-11-18T04:35:57.791Z,31.30
2022-11-18T04:38:29.416Z,34.58
2022-11-18T04:41:01.047Z,33.10
2022-11-18T04:43:32.760Z,40.42
2022-11-18T04:46:04.530Z,46.58
2022-11-18T04:48:36.193Z,50.70
2022-11-18T04:51:10.613Z,46.05
2022-11-18T04:53:42.293Z,40.72
2022-11-18T04:56:13.873Z,41.78
2022-11-18T04:58:45.500Z,38.70
2022-11-18T05:01:17.213Z,37.47
2022-11-18T05:03:52.018Z,35.05
2022-11-18T05:08:56.899Z,32.45
2022-11-18T05:11:47.209Z,33.50
2022-11-18T05:14:19.196Z,31.02
2022-11-18T05:16:55.680Z,27.52
2022-11-18T05:19:27.357Z,27.48
2022-11-18T05:21:59.522Z,27.02
2022-11-18T05:24:31.129Z,27.98
2022-11-18T05:27:03.128Z,27.42
2022-11-18T05:29:34.786Z,24.92
2022-11-18T05:32:06.432Z,29.25
2022-11-18T05:34:39.969Z,24.92
2022-11-18T05:37:11.772Z,25.27
2022-11-18T05:39:43.409Z,26.70
2022-11-18T05:42:33.554Z,28.85
2022-11-18T05:45:05.871Z,26.40
2022-11-18T05:47:57.440Z,28.83
2022-11-18T05:50:29.110Z,26.48
2022-11-18T05:53:02.151Z,29.17
2022-11-18T05:55:42.271Z,27.85
2022-11-18T05:58:14.048Z,28.08
2022-11-18T06:00:48.183Z,27.33
2022-11-18T06:03:30.284Z,22.92
2022-11-18T06:06:05.445Z,27.02
2022-11-18T06:08:46.157Z,25.70
2022-11-18T06:11:19.584Z,30.83
2022-11-18T06:14:16.206Z,26.85
2022-11-18T06:16:53.538Z,26.30
2022-11-18T06:19:26.250Z,27.13
2022-11-18T06:21:59.707Z,25.33
2022-11-18T06:24:31.714Z,26.23
2022-11-18T06:27:03.695Z,23.30
2022-11-18T06:29:35.414Z,24.38
2022-11-18T06:32:07.132Z,24.42
2022-11-18T06:34:41.703Z,24.42
2022-11-18T06:37:20.970Z,25.08
2022-11-18T06:39:52.657Z,24.73
2022-11-18T06:42:42.589Z,25.85
2022-11-18T06:45:14.453Z,24.42
2022-11-18T06:47:46.141Z,26.23
2022-11-18T06:50:17.832Z,24.80
2022-11-18T06:52:49.424Z,22.30
2022-11-18T06:55:21.030Z,21.95
2022-11-18T06:57:52.683Z,21.98
2022-11-18T07:00:24.294Z,20.38
2022-11-18T07:02:55.935Z,22.88
2022-11-18T07:05:27.702Z,22.90
2022-11-18T07:07:59.575Z,21.10
2022-11-18T07:10:31.264Z,24.55
2022-11-18T07:13:02.953Z,21.58
2022-11-18T07:15:37.682Z,22.83
2022-11-18T07:18:09.315Z,23.25
2022-11-18T07:20:41.295Z,22.30
2022-11-18T07:23:15.451Z,23.45
2022-11-18T07:25:47.127Z,24.02
2022-11-18T07:28:18.777Z,21.17
2022-11-18T07:30:51.085Z,22.00
2022-11-18T07:33:22.781Z,21.23
2022-11-18T07:35:54.391Z,22.70
2022-11-18T07:38:26.217Z,22.52
2022-11-18T07:41:09.118Z,20.55
2022-11-18T07:43:41.533Z,20.48
2022-11-18T07:46:17.250Z,19.88
2022-11-18T07:48:50.989Z,19.83
2022-11-18T07:51:27.082Z,19.85
2022-11-18T07:53:58.696Z,21.75
2022-11-18T07:56:30.526Z,18.00
2022-11-18T07:59:02.899Z,17.75
2022-11-18T08:01:35.449Z,18.52
2022-11-18T08:04:09.585Z,19.38
2022-11-18T08:06:41.254Z,17.17
2022-11-18T08:09:12.983Z,19.08
2022-11-18T08:11:44.642Z,18.85
2022-11-18T08:14:16.278Z,18.60
2022-11-18T08:16:48.000Z,17.83
2022-11-18T08:19:20.011Z,16.25
2022-11-18T08:21:51.946Z,17.83
2022-11-18T08:24:23.731Z,17.88
2022-11-18T08:26:55.386Z,16.00
2022-11-18T08:29:28.214Z,17.35
2022-11-18T08:32:00.106Z,17.23
2022-11-18T08:34:31.947Z,16.67
2022-11-18T08:37:03.583Z,19.15
2022-11-18T08:39:35.748Z,15.95
2022-11-18T08:42:07.725Z,14.68
2022-11-18T08:44:39.662Z,18.00
2022-11-18T08:47:11.660Z,17.23
2022-11-18T08:49:43.786Z,16.85
2022-11-18T08:52:16.809Z,18.13
2022-11-18T08:54:48.417Z,16.65
2022-11-18T08:57:20.022Z,18.77
2022-11-18T08:59:52.130Z,18.63
2022-11-18T09:02:24.520Z,18.77
2022-11-18T09:04:56.203Z,21.95
2022-11-18T09:07:27.890Z,25.45
2022-11-18T09:09:59.691Z,26.83
2022-11-18T09:12:31.385Z,25.95
2022-11-18T09:15:13.590Z,28.75
2022-11-18T09:17:46.267Z,28.58
2022-11-18T09:20:18.072Z,30.48
2022-11-18T09:22:49.838Z,24.13
2022-11-18T09:25:22.007Z,24.08
2022-11-18T09:27:55.470Z,22.52
2022-11-18T09:30:27.672Z,26.50
2022-11-18T09:32:59.336Z,22.67
2022-11-18T09:35:32.234Z,21.10
2022-11-18T09:38:03.851Z,21.00
2022-11-18T09:40:58.629Z,21.20
2022-11-18T09:43:57.335Z,19.15
2022-11-18T09:47:07.544Z,18.58
2022-11-18T09:49:41.147Z,21.60
2022-11-18T09:52:12.675Z,22.08
2022-11-18T09:54:44.774Z,25.02
2022-11-18T09:57:36.766Z,23.20
2022-11-18T10:00:26.422Z,25.08
2022-11-18T10:03:04.956Z,25.20
2022-11-18T10:06:09.692Z,22.00
2022-11-18T10:08:55.744Z,25.92
2022-11-18T10:11:40.259Z,28.10
2022-11-18T10:14:23.120Z,24.33
2022-11-18T10:17:22.816Z,28.27
2022-11-18T10:20:07.009Z,28.88
2022-11-18T10:22:54.279Z,27.63
2022-11-18T10:25:26.207Z,27.02
2022-11-18T10:28:14.838Z,29.60
2022-11-18T10:30:46.620Z,31.65
2022-11-18T10:33:25.639Z,31.77
2022-11-18T10:36:26.896Z,34.55
2022-11-18T10:39:15.622Z,31.77
2022-11-18T10:41:52.150Z,30.80
2022-11-18T10:44:33.779Z,29.45
2022-11-18T10:47:43.699Z,32.33
2022-11-18T10:50:29.069Z,32.40
2022-11-18T10:53:02.069Z,29.45
2022-11-18T10:55:33.853Z,27.23
2022-11-18T10:58:13.551Z,27.95
2022-11-18T11:00:51.450Z,29.70
2022-11-18T11:03:44.213Z,26.75
2022-11-18T11:06:31.514Z,23.15
2022-11-18T11:09:24.963Z,27.65
2022-11-18T11:12:12.617Z,26.42
2022-11-18T11:14:53.493Z,25.23
2022-11-18T11:18:09.257Z,22.38
2022-11-18T11:20:41.317Z,28.15
2022-11-18T11:23:19.116Z,25.83
2022-11-18T11:29:07.477Z,25.55
2022-11-18T11:31:55.618Z,27.15
2022-11-18T11:35:07.154Z,25.38
2022-11-18T11:37:55.019Z,27.83
2022-11-18T11:41:08.448Z,26.17
2022-11-18T11:44:08.840Z,28.10
2022-11-18T11:47:38.412Z,27.20
2022-11-18T11:50:17.401Z,32.20
2022-11-18T11:52:49.063Z,29.95
2022-11-18T11:55:21.638Z,30.33
2022-11-18T11:58:13.612Z,22.33
2022-11-18T12:01:03.672Z,25.27
2022-11-18T12:03:52.061Z,21.35
2022-11-18T12:06:24.020Z,31.80
2022-11-18T12:09:07.286Z,32.08
2022-11-18T12:11:45.218Z,25.58
2022-11-18T12:14:39.871Z,25.55
2022-11-18T12:17:28.362Z,23.38
2022-11-18T12:19:59.960Z,30.23
2022-11-18T12:23:09.619Z,25.60
2022-11-18T12:26:02.044Z,26.45
2022-11-18T12:28:43.341Z,25.50
2022-11-18T12:31:18.222Z,24.42
2022-11-18T12:33:53.933Z,21.70
2022-11-18T12:36:35.745Z,23.33
2022-11-18T12:39:36.247Z,16.20
2022-11-18T12:43:01.758Z,17.65
2022-11-18T12:45:43.339Z,16.75
2022-11-18T12:48:27.408Z,14.85
2022-11-18T12:51:22.395Z,16.48
2022-11-18T12:53:54.455Z,13.65
2022-11-18T12:56:35.454Z,16.38
2022-11-18T12:59:13.018Z,15.00
2022-11-18T13:01:44.706Z,14.30
2022-11-18T13:04:22.306Z,12.88
2022-11-18T13:06:56.296Z,15.52
2022-11-18T13:09:32.949Z,16.38
2022-11-18T13:12:12.785Z,15.18
2022-11-18T13:15:04.226Z,15.93
2022-11-18T13:17:58.569Z,15.27
2022-11-18T13:20:37.460Z,15.10
2022-11-18T13:23:30.658Z,17.42
2022-11-18T13:26:16.047Z,13.80
2022-11-18T13:29:16.264Z,17.67
2022-11-18T13:32:15.508Z,17.95
2022-11-18T13:34:50.357Z,14.90
2022-11-18T13:39:58.358Z,16.35
2022-11-18T13:42:31.766Z,14.80
2022-11-18T13:45:04.183Z,14.98
2022-11-18T13:47:51.588Z,13.63
2022-11-18T13:50:40.448Z,12.80
2022-11-18T13:53:19.067Z,15.68
2022-11-18T13:55:56.311Z,16.17
2022-11-18T14:01:36.651Z,15.50
2022-11-18T14:04:21.215Z,14.88
2022-11-18T14:06:53.394Z,13.82
2022-11-18T14:09:30.559Z,12.50
2022-11-18T14:12:28.853Z,11.50
2022-11-18T14:15:34.683Z,13.18
2022-11-18T14:18:23.062Z,15.10
2022-11-18T14:20:55.033Z,13.85
2022-11-18T14:23:36.979Z,16.48
2022-11-18T14:26:09.896Z,14.73
2022-11-18T14:28:55.007Z,14.98
2022-11-18T14:31:29.016Z,13.00
2022-11-18T14:34:05.246Z,12.43
2022-11-18T14:36:36.874Z,14.82
2022-11-18T14:39:29.505Z,14.00
2022-11-18T14:42:01.908Z,17.95
2022-11-18T14:44:34.572Z,13.52
2022-11-18T14:47:24.616Z,16.42
2022-11-18T14:49:56.226Z,16.35
2022-11-18T14:52:30.208Z,17.35
2022-11-18T14:55:01.879Z,16.73
2022-11-18T14:57:33.598Z,16.90
2022-11-18T15:00:05.793Z,17.48
2022-11-18T15:02:37.441Z,14.75
2022-11-18T15:05:09.371Z,16.40
2022-11-18T15:07:41.042Z,17.02
2022-11-18T15:10:17.803Z,16.55
2022-11-18T15:12:49.389Z,16.77
2022-11-18T15:15:21.053Z,15.23
2022-11-18T15:17:54.011Z,17.38
2022-11-18T15:20:28.969Z,15.90
2022-11-18T15:23:00.695Z,16.75
2022-11-18T15:25:32.478Z,17.67
2022-11-18T15:28:04.298Z,17.55
2022-11-18T15:30:36.401Z,19.00
2022-11-18T15:33:10.110Z,15.13
2022-11-18T15:35:41.728Z,15.02
2022-11-18T15:38:13.395Z,19.52
2022-11-18T15:40:45.105Z,21.52
2022-11-18T15:43:17.888Z,19.08
2022-11-18T15:45:57.011Z,17.13
2022-11-18T15:48:28.716Z,20.52
2022-11-18T15:51:00.393Z,19.52
2022-11-18T15:53:32.099Z,21.15
2022-11-18T15:56:19.081Z,16.38
2022-11-18T15:58:57.119Z,17.83
2022-11-18T16:01:32.210Z,21.98
2022-11-18T16:04:05.819Z,19.83
2022-11-18T16:06:38.042Z,19.35
2022-11-18T16:09:10.693Z,19.90
2022-11-18T16:12:00.980Z,18.55
2022-11-18T16:14:32.804Z,19.98
2022-11-18T16:17:04.380Z,21.65
2022-11-18T16:19:36.024Z,18.88
2022-11-18T16:22:07.581Z,19.35
2022-11-18T16:24:42.910Z,19.55
2022-11-18T16:27:20.659Z,20.92
2022-11-18T16:29:52.569Z,17.23
2022-11-18T16:32:26.854Z,22.15
2022-11-18T16:35:01.432Z,20.38
2022-11-18T16:37:34.512Z,21.50
2022-11-18T16:40:06.686Z,18.75
2022-11-18T16:42:38.317Z,15.07
2022-11-18T16:45:10.615Z,15.70
2022-11-18T16:47:43.192Z,18.10
2022-11-18T16:50:14.939Z,22.88
2022-11-18T16:52:46.543Z,22.70
2022-11-18T16:55:18.077Z,29.30
2022-11-18T16:57:49.663Z,31.75
2022-11-18T17:00:37.840Z,28.85
2022-11-18T17:03:12.898Z,28.02
2022-11-18T17:05:44.482Z,29.23
2022-11-18T17:08:16.118Z,29.75
2022-11-18T17:10:47.788Z,32.83
2022-11-18T17:13:19.626Z,30.00
2022-11-18T17:15:51.208Z,28.58
2022-11-18T17:18:22.811Z,25.75
2022-11-18T17:20:54.415Z,26.23
2022-11-18T17:23:28.496Z,31.83
2022-11-18T17:26:01.185Z,29.38
2022-11-18T17:28:35.118Z,31.35
2022-11-18T17:31:08.764Z,32.97
2022-11-18T17:33:41.172Z,32.60
2022-11-18T17:36:18.940Z,30.00
2022-11-18T17:38:53.011Z,28.38
2022-11-18T17:41:45.171Z,31.48
2022-11-18T17:44:17.878Z,36.67
2022-11-18T17:46:50.084Z,31.73
2022-11-18T17:49:22.491Z,30.35
2022-11-18T17:51:54.633Z,32.42
2022-11-18T17:54:36.143Z,32.42
2022-11-18T17:57:07.770Z,31.15
2022-11-18T17:59:39.409Z,32.92
2022-11-18T18:02:14.288Z,34.50
2022-11-18T18:04:46.090Z,32.75
2022-11-18T18:07:19.771Z,31.95
2022-11-18T18:09:51.465Z,33.72
2022-11-18T18:12:41.799Z,29.33
2022-11-18T18:15:13.437Z,30.58
2022-11-18T18:17:51.369Z,35.55
2022-11-18T18:20:23.298Z,33.05
2022-11-18T18:22:54.912Z,31.90
2022-11-18T18:25:26.526Z,35.17
2022-11-18T18:27:58.106Z,33.97
2022-11-18T18:30:29.763Z,33.60
2022-11-18T18:33:04.269Z,33.60
2022-11-18T18:35:41.269Z,37.28
2022-11-18T18:38:12.945Z,35.10
2022-11-18T18:40:44.571Z,38.33
2022-11-18T18:43:16.140Z,36.28
2022-11-18T18:46:06.292Z,37.33
2022-11-18T18:48:37.859Z,38.47
2022-11-18T18:51:09.774Z,32.05
2022-11-18T18:53:41.622Z,37.83
2022-11-18T18:56:13.385Z,36.20
2022-11-18T18:58:45.495Z,37.97
2022-11-18T19:01:18.980Z,35.45
2022-11-18T19:03:59.261Z,38.95
2022-11-18T19:09:29.768Z,38.35
2022-11-18T19:12:20.391Z,40.53
2022-11-18T19:14:52.071Z,31.83
2022-11-18T19:17:24.010Z,31.33
2022-11-18T19:20:33.605Z,44.88
2022-11-18T19:23:10.363Z,32.95
2022-11-18T19:25:44.123Z,40.67
2022-11-18T19:28:15.819Z,44.78
2022-11-18T19:30:47.725Z,46.22
2022-11-18T19:33:19.504Z,45.00
2022-11-18T19:35:51.115Z,46.40
2022-11-18T19:38:28.652Z,43.33
2022-11-18T19:41:08.996Z,46.97
2022-11-18T19:43:41.900Z,45.40
2022-11-18T19:46:13.584Z,46.92
2022-11-18T19:48:48.449Z,48.67
2022-11-18T19:53:54.608Z,46.88
2022-11-18T19:56:28.617Z,44.35
2022-11-18T19:59:00.269Z,53.13
2022-11-18T20:01:32.113Z,50.38
2022-11-18T20:04:07.073Z,48.78
2022-11-18T20:09:11.838Z,46.05
2022-11-18T20:11:44.512Z,44.72
2022-11-18T20:14:16.585Z,41.15
2022-11-18T20:16:48.269Z,43.08
2022-11-18T20:19:20.177Z,38.17
2022-11-18T20:21:52.662Z,33.38
2022-11-18T20:24:24.611Z,39.22
2022-11-18T20:26:56.183Z,32.72
2022-11-18T20:29:27.901Z,35.67
2022-11-18T20:31:59.562Z,33.40
2022-11-18T20:34:31.194Z,29.92
2022-11-18T20:37:02.937Z,35.63
2022-11-18T20:39:34.554Z,31.75
2022-11-18T20:42:24.785Z,32.97
2022-11-18T20:44:56.473Z,34.97
2022-11-18T20:47:28.059Z,30.05
2022-11-18T20:49:59.758Z,30.45
2022-11-18T20:52:33.795Z,32.45
2022-11-18T20:55:06.132Z,31.02
2022-11-18T20:57:37.862Z,126.20
2022-11-18T21:00:10.184Z,38.75
2022-11-18T21:02:41.784Z,31.45
2022-11-18T21:05:13.434Z,35.00
2022-11-18T21:07:45.099Z,31.35
2022-11-18T21:10:17.600Z,32.42
2022-11-18T21:13:07.936Z,32.00
2022-11-18T21:15:39.568Z,28.95
2022-11-18T21:18:11.116Z,30.48
2022-11-18T21:21:01.143Z,32.90
2022-11-18T21:23:35.472Z,32.17
2022-11-18T21:26:12.892Z,28.80
2022-11-18T21:28:45.115Z,30.10
2022-11-18T21:31:21.956Z,27.33
2022-11-18T21:33:55.889Z,29.73
2022-11-18T21:36:30.529Z,29.40
2022-11-18T21:39:04.992Z,28.27
2022-11-18T21:41:37.013Z,28.00
2022-11-18T21:44:10.737Z,56.40
2022-11-18T21:46:42.411Z,36.15
2022-11-18T21:49:17.456Z,47.95
2022-11-18T21:51:49.500Z,24.23
2022-11-18T21:54:21.260Z,21.88
2022-11-18T21:56:53.849Z,24.20
2022-11-18T21:59:25.486Z,23.50
2022-11-18T22:01:57.120Z,21.98
2022-11-18T22:04:47.539Z,22.10
2022-11-18T22:07:23.978Z,22.73
2022-11-18T22:09:55.657Z,22.50
2022-11-18T22:12:27.325Z,25.38
2022-11-18T22:14:58.928Z,22.55
2022-11-18T22:17:30.620Z,23.27
2022-11-18T22:20:02.781Z,25.10
2022-11-18T22:22:34.462Z,22.17
2022-11-18T22:25:06.517Z,23.70
2022-11-18T22:27:38.139Z,18.77
2022-11-18T22:30:10.199Z,19.55
2022-11-18T22:32:43.476Z,18.27
2022-11-18T22:35:15.175Z,19.35
2022-11-18T22:37:46.838Z,17.48
2022-11-18T22:40:18.533Z,23.27
2022-11-18T22:42:50.615Z,17.85
2022-11-18T22:45:22.407Z,16.90
2022-11-18T22:47:54.083Z,16.85
2022-11-18T22:50:28.666Z,17.25
2022-11-18T22:53:02.905Z,20.45
2022-11-18T22:55:34.503Z,16.30
2022-11-18T22:58:06.231Z,14.30
2022-11-18T23:00:37.914Z,14.43
2022-11-18T23:03:09.512Z,15.02
2022-11-18T23:05:42.595Z,13.98
2022-11-18T23:08:17.290Z,22.17
2022-11-18T23:10:49.136Z,20.35
2022-11-18T23:13:39.500Z,17.20
2022-11-18T23:16:11.075Z,17.60
2022-11-18T23:18:47.285Z,21.33
2022-11-18T23:21:18.919Z,16.75
2022-11-18T23:23:52.623Z,17.45
2022-11-18T23:26:24.757Z,16.10
2022-11-18T23:28:56.452Z,15.90
2022-11-18T23:31:28.413Z,16.08
2022-11-18T23:34:00.286Z,13.90
2022-11-18T23:36:31.892Z,16.50
2022-11-18T23:39:04.734Z,15.30
2022-11-18T23:41:36.817Z,14.15
2022-11-18T23:44:08.495Z,13.02
2022-11-18T23:46:40.042Z,13.52
2022-11-18T23:49:12.605Z,10.80
2022-11-18T23:51:44.204Z,13.77
2022-11-18T23:54:15.764Z,15.13
2022-11-18T23:56:47.431Z,13.35
2022-11-18T23:59:19.440Z,12.60
